sensor_id;sensor_type;location;lat;lon;timestamp;P1;durP1;ratioP1;P2;durP2;ratioP2
39044;SDS011;52192;52.002;5.956;2024-03-07T00:02:17;13.77;;;6.28;;
39044;SDS011;52192;52.002;5.956;2024-03-07T00:04:43;13.73;;;8.25;;
39044;SDS011;52192;52.002;5.956;2024-03-07T00:07:09;17.67;;;8.05;;
39044;SDS011;52192;52.002;5.956;2024-03-07T00:09:36;16.38;;;7.68;;
39044;SDS011;52192;52.002;5.956;2024-03-07T00:12:02;13.10;;;7.63;;
39044;SDS011;52192;52.002;5.956;2024-03-07T00:14:29;15.38;;;6.88;;
39044;SDS011;52192;52.002;5.956;2024-03-07T00:16:57;16.52;;;6.85;;
39044;SDS011;52192;52.002;5.956;2024-03-07T00:19:26;13.48;;;7.22;;
39044;SDS011;52192;52.002;5.956;2024-03-07T00:21:52;13.05;;;6.75;;
39044;SDS011;52192;52.002;5.956;2024-03-07T00:24:22;13.85;;;7.25;;
39044;SDS011;52192;52.002;5.956;2024-03-07T00:26:48;15.48;;;7.80;;
39044;SDS011;52192;52.002;5.956;2024-03-07T00:29:16;14.18;;;6.22;;
39044;SDS011;52192;52.002;5.956;2024-03-07T00:31:46;11.52;;;6.15;;
39044;SDS011;52192;52.002;5.956;2024-03-07T00:34:15;18.73;;;7.75;;
39044;SDS011;52192;52.002;5.956;2024-03-07T00:36:44;15.63;;;7.00;;
39044;SDS011;52192;52.002;5.956;2024-03-07T00:39:11;14.68;;;7.57;;
39044;SDS011;52192;52.002;5.956;2024-03-07T00:41:38;13.55;;;7.10;;
39044;SDS011;52192;52.002;5.956;2024-03-07T00:44:07;13.15;;;7.03;;
39044;SDS011;52192;52.002;5.956;2024-03-07T00:46:36;15.77;;;6.72;;
39044;SDS011;52192;52.002;5.956;2024-03-07T00:49:03;14.63;;;7.40;;
39044;SDS011;52192;52.002;5.956;2024-03-07T00:51:30;15.80;;;7.25;;
39044;SDS011;52192;52.002;5.956;2024-03-07T00:53:56;12.45;;;6.75;;
39044;SDS011;52192;52.002;5.956;2024-03-07T00:56:23;14.90;;;6.60;;
39044;SDS011;52192;52.002;5.956;2024-03-07T00:58:49;10.85;;;6.40;;
39044;SDS011;52192;52.002;5.956;2024-03-07T01:01:15;14.98;;;6.70;;
39044;SDS011;52192;52.002;5.956;2024-03-07T01:03:42;20.20;;;7.82;;
39044;SDS011;52192;52.002;5.956;2024-03-07T01:06:08;16.13;;;6.40;;
39044;SDS011;52192;52.002;5.956;2024-03-07T01:08:38;17.33;;;7.78;;
39044;SDS011;52192;52.002;5.956;2024-03-07T01:11:05;14.35;;;8.40;;
39044;SDS011;52192;52.002;5.956;2024-03-07T01:13:36;13.75;;;6.75;;
39044;SDS011;52192;52.002;5.956;2024-03-07T01:16:02;13.77;;;7.63;;
39044;SDS011;52192;52.002;5.956;2024-03-07T01:18:28;17.20;;;6.90;;
39044;SDS011;52192;52.002;5.956;2024-03-07T01:20:54;20.60;;;8.98;;
39044;SDS011;52192;52.002;5.956;2024-03-07T01:23:20;14.43;;;7.28;;
39044;SDS011;52192;52.002;5.956;2024-03-07T01:25:46;12.48;;;6.63;;
39044;SDS011;52192;52.002;5.956;2024-03-07T01:28:12;15.50;;;6.32;;
39044;SDS011;52192;52.002;5.956;2024-03-07T01:30:39;13.77;;;7.57;;
39044;SDS011;52192;52.002;5.956;2024-03-07T01:33:05;13.48;;;6.10;;
39044;SDS011;52192;52.002;5.956;2024-03-07T01:35:31;18.10;;;8.30;;
39044;SDS011;52192;52.002;5.956;2024-03-07T01:37:57;11.02;;;6.15;;
39044;SDS011;52192;52.002;5.956;2024-03-07T01:40:22;16.48;;;6.63;;
39044;SDS011;52192;52.002;5.956;2024-03-07T01:42:52;15.95;;;7.03;;
39044;SDS011;52192;52.002;5.956;2024-03-07T01:45:17;15.85;;;7.65;;
39044;SDS011;52192;52.002;5.956;2024-03-07T01:47:44;14.18;;;6.22;;
39044;SDS011;52192;52.002;5.956;2024-03-07T01:50:10;19.65;;;9.38;;
39044;SDS011;52192;52.002;5.956;2024-03-07T01:52:38;20.45;;;7.78;;
39044;SDS011;52192;52.002;5.956;2024-03-07T01:55:06;18.80;;;8.40;;
39044;SDS011;52192;52.002;5.956;2024-03-07T01:57:33;15.70;;;7.15;;
39044;SDS011;52192;52.002;5.956;2024-03-07T02:00:00;15.23;;;7.15;;
39044;SDS011;52192;52.002;5.956;2024-03-07T02:02:31;16.48;;;8.63;;
39044;SDS011;52192;52.002;5.956;2024-03-07T02:04:57;17.27;;;7.97;;
39044;SDS011;52192;52.002;5.956;2024-03-07T02:07:24;12.88;;;6.72;;
39044;SDS011;52192;52.002;5.956;2024-03-07T02:09:58;13.13;;;7.10;;
39044;SDS011;52192;52.002;5.956;2024-03-07T02:12:34;11.23;;;5.78;;
39044;SDS011;52192;52.002;5.956;2024-03-07T02:15:00;15.38;;;7.93;;
39044;SDS011;52192;52.002;5.956;2024-03-07T02:17:26;17.63;;;7.05;;
39044;SDS011;52192;52.002;5.956;2024-03-07T02:19:52;19.00;;;8.00;;
39044;SDS011;52192;52.002;5.956;2024-03-07T02:22:19;17.85;;;7.97;;
39044;SDS011;52192;52.002;5.956;2024-03-07T02:24:45;17.48;;;6.63;;
39044;SDS011;52192;52.002;5.956;2024-03-07T02:27:14;18.38;;;7.93;;
39044;SDS011;52192;52.002;5.956;2024-03-07T02:29:40;17.20;;;7.78;;
39044;SDS011;52192;52.002;5.956;2024-03-07T02:32:06;14.93;;;7.70;;
39044;SDS011;52192;52.002;5.956;2024-03-07T02:34:32;20.98;;;7.20;;
39044;SDS011;52192;52.002;5.956;2024-03-07T02:36:59;15.80;;;7.22;;
39044;SDS011;52192;52.002;5.956;2024-03-07T02:39:25;16.90;;;6.25;;
39044;SDS011;52192;52.002;5.956;2024-03-07T02:41:51;14.93;;;7.95;;
39044;SDS011;52192;52.002;5.956;2024-03-07T02:44:17;15.25;;;8.05;;
39044;SDS011;52192;52.002;5.956;2024-03-07T02:46:44;16.80;;;7.43;;
39044;SDS011;52192;52.002;5.956;2024-03-07T02:49:12;18.75;;;9.18;;
39044;SDS011;52192;52.002;5.956;2024-03-07T02:51:39;15.48;;;7.68;;
39044;SDS011;52192;52.002;5.956;2024-03-07T02:54:07;19.00;;;8.68;;
39044;SDS011;52192;52.002;5.956;2024-03-07T02:56:33;12.70;;;6.85;;
39044;SDS011;52192;52.002;5.956;2024-03-07T02:59:00;18.25;;;7.43;;
39044;SDS011;52192;52.002;5.956;2024-03-07T03:01:26;17.98;;;8.02;;
39044;SDS011;52192;52.002;5.956;2024-03-07T03:03:52;19.35;;;9.13;;
39044;SDS011;52192;52.002;5.956;2024-03-07T03:06:18;13.70;;;7.30;;
39044;SDS011;52192;52.002;5.956;2024-03-07T03:08:47;15.75;;;7.90;;
39044;SDS011;52192;52.002;5.956;2024-03-07T03:11:14;11.18;;;6.68;;
39044;SDS011;52192;52.002;5.956;2024-03-07T03:13:40;16.25;;;7.95;;
39044;SDS011;52192;52.002;5.956;2024-03-07T03:16:06;15.95;;;7.30;;
39044;SDS011;52192;52.002;5.956;2024-03-07T03:18:33;20.60;;;8.38;;
39044;SDS011;52192;52.002;5.956;2024-03-07T03:21:02;18.15;;;7.65;;
39044;SDS011;52192;52.002;5.956;2024-03-07T03:23:28;17.77;;;8.30;;
39044;SDS011;52192;52.002;5.956;2024-03-07T03:25:55;19.05;;;8.38;;
39044;SDS011;52192;52.002;5.956;2024-03-07T03:28:21;11.60;;;7.35;;
39044;SDS011;52192;52.002;5.956;2024-03-07T03:30:48;18.17;;;9.10;;
39044;SDS011;52192;52.002;5.956;2024-03-07T03:33:15;16.77;;;8.32;;
39044;SDS011;52192;52.002;5.956;2024-03-07T03:35:42;15.35;;;7.85;;
39044;SDS011;52192;52.002;5.956;2024-03-07T03:38:09;19.85;;;7.32;;
39044;SDS011;52192;52.002;5.956;2024-03-07T03:40:36;24.98;;;9.18;;
39044;SDS011;52192;52.002;5.956;2024-03-07T03:43:02;14.73;;;8.18;;
39044;SDS011;52192;52.002;5.956;2024-03-07T03:45:28;18.48;;;7.13;;
39044;SDS011;52192;52.002;5.956;2024-03-07T03:47:54;19.30;;;8.02;;
39044;SDS011;52192;52.002;5.956;2024-03-07T03:50:20;15.63;;;5.97;;
39044;SDS011;52192;52.002;5.956;2024-03-07T03:52:49;18.27;;;9.32;;
39044;SDS011;52192;52.002;5.956;2024-03-07T03:55:15;12.90;;;6.75;;
39044;SDS011;52192;52.002;5.956;2024-03-07T03:57:42;16.75;;;8.02;;
39044;SDS011;52192;52.002;5.956;2024-03-07T04:00:09;15.75;;;7.93;;
39044;SDS011;52192;52.002;5.956;2024-03-07T04:02:39;17.88;;;8.40;;
39044;SDS011;52192;52.002;5.956;2024-03-07T04:05:06;19.58;;;8.30;;
39044;SDS011;52192;52.002;5.956;2024-03-07T04:07:37;15.55;;;7.00;;
39044;SDS011;52192;52.002;5.956;2024-03-07T04:10:03;16.63;;;8.13;;
39044;SDS011;52192;52.002;5.956;2024-03-07T04:12:36;17.27;;;8.77;;
39044;SDS011;52192;52.002;5.956;2024-03-07T04:15:06;12.35;;;6.32;;
39044;SDS011;52192;52.002;5.956;2024-03-07T04:17:37;15.73;;;7.20;;
39044;SDS011;52192;52.002;5.956;2024-03-07T04:20:03;15.30;;;8.88;;
39044;SDS011;52192;52.002;5.956;2024-03-07T04:22:31;19.80;;;9.50;;
39044;SDS011;52192;52.002;5.956;2024-03-07T04:24:58;15.38;;;7.60;;
39044;SDS011;52192;52.002;5.956;2024-03-07T04:27:24;15.10;;;8.18;;
39044;SDS011;52192;52.002;5.956;2024-03-07T04:29:51;12.75;;;6.60;;
39044;SDS011;52192;52.002;5.956;2024-03-07T04:32:17;15.73;;;7.43;;
39044;SDS011;52192;52.002;5.956;2024-03-07T04:34:46;13.82;;;7.47;;
39044;SDS011;52192;52.002;5.956;2024-03-07T04:37:12;17.98;;;9.35;;
39044;SDS011;52192;52.002;5.956;2024-03-07T04:39:38;16.75;;;6.53;;
39044;SDS011;52192;52.002;5.956;2024-03-07T04:42:05;18.98;;;8.25;;
39044;SDS011;52192;52.002;5.956;2024-03-07T04:44:32;14.77;;;8.65;;
39044;SDS011;52192;52.002;5.956;2024-03-07T04:47:01;17.55;;;8.90;;
39044;SDS011;52192;52.002;5.956;2024-03-07T04:49:28;14.60;;;7.80;;
39044;SDS011;52192;52.002;5.956;2024-03-07T04:51:55;19.23;;;8.32;;
39044;SDS011;52192;52.002;5.956;2024-03-07T04:54:23;12.90;;;7.10;;
39044;SDS011;52192;52.002;5.956;2024-03-07T04:56:50;14.90;;;8.90;;
39044;SDS011;52192;52.002;5.956;2024-03-07T04:59:18;18.08;;;7.38;;
39044;SDS011;52192;52.002;5.956;2024-03-07T05:01:45;17.15;;;8.60;;
39044;SDS011;52192;52.002;5.956;2024-03-07T05:04:12;12.85;;;7.60;;
39044;SDS011;52192;52.002;5.956;2024-03-07T05:06:39;18.50;;;9.32;;
39044;SDS011;52192;52.002;5.956;2024-03-07T05:09:06;13.20;;;7.90;;
39044;SDS011;52192;52.002;5.956;2024-03-07T05:11:33;16.30;;;7.22;;
39044;SDS011;52192;52.002;5.956;2024-03-07T05:14:00;19.92;;;9.10;;
39044;SDS011;52192;52.002;5.956;2024-03-07T05:16:27;15.50;;;7.75;;
39044;SDS011;52192;52.002;5.956;2024-03-07T05:18:53;17.95;;;7.57;;
39044;SDS011;52192;52.002;5.956;2024-03-07T05:21:23;18.20;;;8.25;;
39044;SDS011;52192;52.002;5.956;2024-03-07T05:23:58;15.10;;;7.18;;
39044;SDS011;52192;52.002;5.956;2024-03-07T05:26:30;14.50;;;7.38;;
39044;SDS011;52192;52.002;5.956;2024-03-07T05:29:04;14.00;;;7.75;;
39044;SDS011;52192;52.002;5.956;2024-03-07T05:31:35;12.50;;;7.13;;
39044;SDS011;52192;52.002;5.956;2024-03-07T05:34:05;16.35;;;7.10;;
39044;SDS011;52192;52.002;5.956;2024-03-07T05:36:36;17.63;;;8.37;;
39044;SDS011;52192;52.002;5.956;2024-03-07T05:39:15;16.25;;;7.72;;
39044;SDS011;52192;52.002;5.956;2024-03-07T05:41:43;11.60;;;6.18;;
39044;SDS011;52192;52.002;5.956;2024-03-07T05:44:13;18.20;;;7.75;;
39044;SDS011;52192;52.002;5.956;2024-03-07T05:46:40;14.32;;;8.13;;
39044;SDS011;52192;52.002;5.956;2024-03-07T05:49:11;17.95;;;8.57;;
39044;SDS011;52192;52.002;5.956;2024-03-07T05:51:42;14.25;;;6.07;;
39044;SDS011;52192;52.002;5.956;2024-03-07T05:54:10;14.95;;;7.00;;
39044;SDS011;52192;52.002;5.956;2024-03-07T05:56:37;14.10;;;7.15;;
39044;SDS011;52192;52.002;5.956;2024-03-07T05:59:04;12.55;;;6.72;;
39044;SDS011;52192;52.002;5.956;2024-03-07T06:01:32;21.38;;;8.23;;
39044;SDS011;52192;52.002;5.956;2024-03-07T06:03:59;10.38;;;6.70;;
39044;SDS011;52192;52.002;5.956;2024-03-07T06:06:25;13.43;;;6.95;;
39044;SDS011;52192;52.002;5.956;2024-03-07T06:08:52;14.93;;;7.03;;
39044;SDS011;52192;52.002;5.956;2024-03-07T06:11:18;11.30;;;5.90;;
39044;SDS011;52192;52.002;5.956;2024-03-07T06:13:46;14.93;;;7.53;;
39044;SDS011;52192;52.002;5.956;2024-03-07T06:16:12;10.82;;;6.78;;
39044;SDS011;52192;52.002;5.956;2024-03-07T06:18:40;13.68;;;6.88;;
39044;SDS011;52192;52.002;5.956;2024-03-07T06:21:06;11.48;;;5.88;;
39044;SDS011;52192;52.002;5.956;2024-03-07T06:23:33;15.50;;;8.13;;
39044;SDS011;52192;52.002;5.956;2024-03-07T06:25:59;13.38;;;7.43;;
39044;SDS011;52192;52.002;5.956;2024-03-07T06:28:25;16.02;;;8.23;;
39044;SDS011;52192;52.002;5.956;2024-03-07T06:30:54;12.35;;;6.18;;
39044;SDS011;52192;52.002;5.956;2024-03-07T06:33:20;11.68;;;6.80;;
39044;SDS011;52192;52.002;5.956;2024-03-07T06:35:46;14.82;;;7.38;;
39044;SDS011;52192;52.002;5.956;2024-03-07T06:38:13;13.23;;;7.28;;
39044;SDS011;52192;52.002;5.956;2024-03-07T06:40:39;13.80;;;6.60;;
39044;SDS011;52192;52.002;5.956;2024-03-07T06:43:06;16.92;;;6.95;;
39044;SDS011;52192;52.002;5.956;2024-03-07T06:45:34;13.02;;;7.20;;
39044;SDS011;52192;52.002;5.956;2024-03-07T06:48:02;12.50;;;5.95;;
39044;SDS011;52192;52.002;5.956;2024-03-07T06:50:34;12.30;;;6.40;;
39044;SDS011;52192;52.002;5.956;2024-03-07T06:53:00;16.40;;;6.43;;
39044;SDS011;52192;52.002;5.956;2024-03-07T06:55:26;8.40;;;5.55;;
39044;SDS011;52192;52.002;5.956;2024-03-07T06:57:52;12.68;;;6.18;;
39044;SDS011;52192;52.002;5.956;2024-03-07T07:00:21;11.77;;;6.38;;
39044;SDS011;52192;52.002;5.956;2024-03-07T07:02:47;13.48;;;7.22;;
39044;SDS011;52192;52.002;5.956;2024-03-07T07:05:14;12.48;;;6.40;;
39044;SDS011;52192;52.002;5.956;2024-03-07T07:07:41;10.93;;;6.25;;
39044;SDS011;52192;52.002;5.956;2024-03-07T07:10:07;13.60;;;6.47;;
39044;SDS011;52192;52.002;5.956;2024-03-07T07:12:40;15.70;;;6.93;;
39044;SDS011;52192;52.002;5.956;2024-03-07T07:15:10;11.88;;;6.25;;
39044;SDS011;52192;52.002;5.956;2024-03-07T07:17:37;16.17;;;7.10;;
39044;SDS011;52192;52.002;5.956;2024-03-07T07:20:03;9.38;;;5.93;;
39044;SDS011;52192;52.002;5.956;2024-03-07T07:22:36;8.65;;;5.32;;
39044;SDS011;52192;52.002;5.956;2024-03-07T07:25:02;11.52;;;5.07;;
39044;SDS011;52192;52.002;5.956;2024-03-07T07:27:30;10.30;;;5.25;;
39044;SDS011;52192;52.002;5.956;2024-03-07T07:29:57;18.10;;;6.82;;
39044;SDS011;52192;52.002;5.956;2024-03-07T07:32:22;10.07;;;5.55;;
39044;SDS011;52192;52.002;5.956;2024-03-07T07:34:48;9.85;;;5.05;;
39044;SDS011;52192;52.002;5.956;2024-03-07T07:37:14;10.48;;;5.32;;
39044;SDS011;52192;52.002;5.956;2024-03-07T07:39:40;8.05;;;5.28;;
39044;SDS011;52192;52.002;5.956;2024-03-07T07:42:05;11.50;;;4.75;;
39044;SDS011;52192;52.002;5.956;2024-03-07T07:44:31;8.95;;;5.00;;
39044;SDS011;52192;52.002;5.956;2024-03-07T07:46:58;10.40;;;5.38;;
39044;SDS011;52192;52.002;5.956;2024-03-07T07:49:24;9.65;;;5.28;;
39044;SDS011;52192;52.002;5.956;2024-03-07T07:51:50;11.05;;;4.93;;
39044;SDS011;52192;52.002;5.956;2024-03-07T07:54:15;11.10;;;4.88;;
39044;SDS011;52192;52.002;5.956;2024-03-07T07:56:42;9.90;;;5.03;;
39044;SDS011;52192;52.002;5.956;2024-03-07T07:59:08;11.70;;;5.07;;
39044;SDS011;52192;52.002;5.956;2024-03-07T08:01:34;12.77;;;5.88;;
39044;SDS011;52192;52.002;5.956;2024-03-07T08:04:00;10.13;;;4.70;;
39044;SDS011;52192;52.002;5.956;2024-03-07T08:06:25;11.95;;;5.80;;
39044;SDS011;52192;52.002;5.956;2024-03-07T08:08:52;8.93;;;4.93;;
39044;SDS011;52192;52.002;5.956;2024-03-07T08:11:18;9.40;;;5.57;;
39044;SDS011;52192;52.002;5.956;2024-03-07T08:13:44;10.65;;;5.85;;
39044;SDS011;52192;52.002;5.956;2024-03-07T08:16:12;8.75;;;4.20;;
39044;SDS011;52192;52.002;5.956;2024-03-07T08:18:38;10.80;;;4.53;;
39044;SDS011;52192;52.002;5.956;2024-03-07T08:21:04;9.90;;;4.45;;
39044;SDS011;52192;52.002;5.956;2024-03-07T08:23:30;9.30;;;4.68;;
39044;SDS011;52192;52.002;5.956;2024-03-07T08:25:56;10.38;;;4.28;;
39044;SDS011;52192;52.002;5.956;2024-03-07T08:28:23;9.23;;;5.53;;
39044;SDS011;52192;52.002;5.956;2024-03-07T08:30:49;8.45;;;4.90;;
39044;SDS011;52192;52.002;5.956;2024-03-07T08:33:14;8.05;;;3.72;;
39044;SDS011;52192;52.002;5.956;2024-03-07T08:35:40;8.80;;;5.00;;
39044;SDS011;52192;52.002;5.956;2024-03-07T08:38:06;11.52;;;4.68;;
39044;SDS011;52192;52.002;5.956;2024-03-07T08:40:33;5.88;;;3.45;;
39044;SDS011;52192;52.002;5.956;2024-03-07T08:42:59;12.55;;;4.70;;
39044;SDS011;52192;52.002;5.956;2024-03-07T08:45:26;9.50;;;4.78;;
39044;SDS011;52192;52.002;5.956;2024-03-07T08:47:53;7.70;;;4.57;;
39044;SDS011;52192;52.002;5.956;2024-03-07T08:50:20;9.10;;;5.07;;
39044;SDS011;52192;52.002;5.956;2024-03-07T08:52:46;9.50;;;4.50;;
39044;SDS011;52192;52.002;5.956;2024-03-07T08:55:16;8.48;;;4.85;;
39044;SDS011;52192;52.002;5.956;2024-03-07T08:57:44;10.18;;;4.70;;
39044;SDS011;52192;52.002;5.956;2024-03-07T09:00:14;8.20;;;4.85;;
39044;SDS011;52192;52.002;5.956;2024-03-07T09:02:48;6.35;;;3.35;;
39044;SDS011;52192;52.002;5.956;2024-03-07T09:05:17;6.82;;;3.03;;
39044;SDS011;52192;52.002;5.956;2024-03-07T09:07:44;6.50;;;3.70;;
39044;SDS011;52192;52.002;5.956;2024-03-07T09:10:11;8.32;;;3.95;;
39044;SDS011;52192;52.002;5.956;2024-03-07T09:12:37;10.30;;;5.20;;
39044;SDS011;52192;52.002;5.956;2024-03-07T09:15:04;7.57;;;4.40;;
39044;SDS011;52192;52.002;5.956;2024-03-07T09:17:29;8.10;;;3.60;;
39044;SDS011;52192;52.002;5.956;2024-03-07T09:19:55;7.85;;;4.47;;
39044;SDS011;52192;52.002;5.956;2024-03-07T09:22:21;8.63;;;4.18;;
39044;SDS011;52192;52.002;5.956;2024-03-07T09:24:46;7.22;;;3.83;;
39044;SDS011;52192;52.002;5.956;2024-03-07T09:27:12;16.25;;;5.75;;
39044;SDS011;52192;52.002;5.956;2024-03-07T09:29:40;10.70;;;4.18;;
39044;SDS011;52192;52.002;5.956;2024-03-07T09:32:06;8.93;;;5.05;;
39044;SDS011;52192;52.002;5.956;2024-03-07T09:34:34;6.55;;;3.78;;
39044;SDS011;52192;52.002;5.956;2024-03-07T09:37:03;8.18;;;3.75;;
39044;SDS011;52192;52.002;5.956;2024-03-07T09:39:29;7.57;;;3.88;;
39044;SDS011;52192;52.002;5.956;2024-03-07T09:41:59;7.07;;;4.30;;
39044;SDS011;52192;52.002;5.956;2024-03-07T09:44:30;7.35;;;3.75;;
39044;SDS011;52192;52.002;5.956;2024-03-07T09:46:58;6.95;;;3.65;;
39044;SDS011;52192;52.002;5.956;2024-03-07T09:49:26;7.47;;;4.35;;
39044;SDS011;52192;52.002;5.956;2024-03-07T09:51:53;6.63;;;4.35;;
39044;SDS011;52192;52.002;5.956;2024-03-07T09:54:22;7.85;;;3.65;;
39044;SDS011;52192;52.002;5.956;2024-03-07T09:56:50;8.48;;;4.40;;
39044;SDS011;52192;52.002;5.956;2024-03-07T09:59:23;8.50;;;3.95;;
39044;SDS011;52192;52.002;5.956;2024-03-07T10:01:51;7.30;;;3.85;;
39044;SDS011;52192;52.002;5.956;2024-03-07T10:04:38;6.95;;;3.58;;
39044;SDS011;52192;52.002;5.956;2024-03-07T10:07:10;8.90;;;4.50;;
39044;SDS011;52192;52.002;5.956;2024-03-07T10:09:37;9.32;;;4.80;;
39044;SDS011;52192;52.002;5.956;2024-03-07T10:12:05;10.18;;;5.05;;
39044;SDS011;52192;52.002;5.956;2024-03-07T10:14:37;11.10;;;4.78;;
39044;SDS011;52192;52.002;5.956;2024-03-07T10:17:03;8.32;;;4.78;;
39044;SDS011;52192;52.002;5.956;2024-03-07T10:19:30;7.53;;;4.15;;
39044;SDS011;52192;52.002;5.956;2024-03-07T10:21:56;7.57;;;3.70;;
39044;SDS011;52192;52.002;5.956;2024-03-07T10:24:26;7.65;;;4.13;;
39044;SDS011;52192;52.002;5.956;2024-03-07T10:26:53;9.32;;;4.65;;
39044;SDS011;52192;52.002;5.956;2024-03-07T10:29:23;6.38;;;3.60;;
39044;SDS011;52192;52.002;5.956;2024-03-07T10:31:49;10.65;;;4.15;;
39044;SDS011;52192;52.002;5.956;2024-03-07T10:34:15;7.45;;;4.03;;
39044;SDS011;52192;52.002;5.956;2024-03-07T10:36:43;10.32;;;3.92;;
39044;SDS011;52192;52.002;5.956;2024-03-07T10:39:10;8.40;;;4.95;;
39044;SDS011;52192;52.002;5.956;2024-03-07T10:41:47;8.73;;;3.55;;
39044;SDS011;52192;52.002;5.956;2024-03-07T10:44:17;8.02;;;4.47;;
39044;SDS011;52192;52.002;5.956;2024-03-07T10:46:54;11.80;;;3.55;;
39044;SDS011;52192;52.002;5.956;2024-03-07T10:49:22;8.90;;;3.50;;
39044;SDS011;52192;52.002;5.956;2024-03-07T10:52:05;8.98;;;4.20;;
39044;SDS011;52192;52.002;5.956;2024-03-07T10:54:48;7.05;;;3.97;;
39044;SDS011;52192;52.002;5.956;2024-03-07T11:00:23;10.32;;;4.38;;
39044;SDS011;52192;52.002;5.956;2024-03-07T11:03:01;8.30;;;4.50;;
39044;SDS011;52192;52.002;5.956;2024-03-07T11:05:32;10.27;;;4.45;;
39044;SDS011;52192;52.002;5.956;2024-03-07T11:07:58;6.88;;;3.45;;
39044;SDS011;52192;52.002;5.956;2024-03-07T11:10:29;8.80;;;3.85;;
39044;SDS011;52192;52.002;5.956;2024-03-07T11:12:55;11.63;;;4.38;;
39044;SDS011;52192;52.002;5.956;2024-03-07T11:15:23;7.30;;;3.85;;
39044;SDS011;52192;52.002;5.956;2024-03-07T11:17:52;7.00;;;3.17;;
39044;SDS011;52192;52.002;5.956;2024-03-07T11:20:20;9.57;;;5.00;;
39044;SDS011;52192;52.002;5.956;2024-03-07T11:22:46;7.40;;;4.03;;
39044;SDS011;52192;52.002;5.956;2024-03-07T11:25:15;6.78;;;4.40;;
39044;SDS011;52192;52.002;5.956;2024-03-07T11:30:19;11.27;;;4.05;;
39044;SDS011;52192;52.002;5.956;2024-03-07T11:32:46;8.48;;;4.22;;
39044;SDS011;52192;52.002;5.956;2024-03-07T11:35:14;9.52;;;4.07;;
39044;SDS011;52192;52.002;5.956;2024-03-07T11:37:41;9.15;;;4.57;;
39044;SDS011;52192;52.002;5.956;2024-03-07T11:40:13;6.05;;;3.28;;
39044;SDS011;52192;52.002;5.956;2024-03-07T11:42:52;8.23;;;4.60;;
39044;SDS011;52192;52.002;5.956;2024-03-07T11:45:20;8.35;;;4.18;;
39044;SDS011;52192;52.002;5.956;2024-03-07T11:47:58;6.32;;;3.78;;
39044;SDS011;52192;52.002;5.956;2024-03-07T11:50:40;9.43;;;4.45;;
39044;SDS011;52192;52.002;5.956;2024-03-07T11:53:07;8.85;;;3.63;;
39044;SDS011;52192;52.002;5.956;2024-03-07T11:55:37;12.40;;;4.30;;
39044;SDS011;52192;52.002;5.956;2024-03-07T11:58:19;6.47;;;3.30;;
39044;SDS011;52192;52.002;5.956;2024-03-07T12:00:49;7.65;;;4.68;;
39044;SDS011;52192;52.002;5.956;2024-03-07T12:03:19;7.07;;;3.30;;
39044;SDS011;52192;52.002;5.956;2024-03-07T12:05:50;7.75;;;4.28;;
39044;SDS011;52192;52.002;5.956;2024-03-07T12:08:17;5.15;;;2.97;;
39044;SDS011;52192;52.002;5.956;2024-03-07T12:10:45;7.53;;;3.10;;
39044;SDS011;52192;52.002;5.956;2024-03-07T12:13:11;7.05;;;3.33;;
39044;SDS011;52192;52.002;5.956;2024-03-07T12:15:38;7.05;;;4.13;;
39044;SDS011;52192;52.002;5.956;2024-03-07T12:18:04;6.72;;;3.42;;
39044;SDS011;52192;52.002;5.956;2024-03-07T12:20:37;7.28;;;3.45;;
39044;SDS011;52192;52.002;5.956;2024-03-07T12:23:06;6.45;;;4.45;;
39044;SDS011;52192;52.002;5.956;2024-03-07T12:25:37;6.55;;;3.50;;
39044;SDS011;52192;52.002;5.956;2024-03-07T12:30:37;7.15;;;3.83;;
39044;SDS011;52192;52.002;5.956;2024-03-07T12:33:16;7.55;;;3.65;;
39044;SDS011;52192;52.002;5.956;2024-03-07T12:35:44;5.28;;;3.00;;
39044;SDS011;52192;52.002;5.956;2024-03-07T12:38:13;8.52;;;4.00;;
39044;SDS011;52192;52.002;5.956;2024-03-07T12:40:42;4.13;;;2.72;;
39044;SDS011;52192;52.002;5.956;2024-03-07T12:45:48;6.07;;;3.25;;
39044;SDS011;52192;52.002;5.956;2024-03-07T12:48:15;5.07;;;3.00;;
39044;SDS011;52192;52.002;5.956;2024-03-07T12:50:41;7.15;;;3.90;;
39044;SDS011;52192;52.002;5.956;2024-03-07T12:53:10;7.55;;;4.38;;
39044;SDS011;52192;52.002;5.956;2024-03-07T12:55:39;5.50;;;3.55;;
39044;SDS011;52192;52.002;5.956;2024-03-07T12:58:09;7.45;;;4.43;;
39044;SDS011;52192;52.002;5.956;2024-03-07T13:00:38;5.80;;;3.55;;
39044;SDS011;52192;52.002;5.956;2024-03-07T13:03:08;7.72;;;4.15;;
39044;SDS011;52192;52.002;5.956;2024-03-07T13:05:35;6.10;;;3.35;;
39044;SDS011;52192;52.002;5.956;2024-03-07T13:08:05;6.43;;;3.63;;
39044;SDS011;52192;52.002;5.956;2024-03-07T13:10:31;7.35;;;3.30;;
39044;SDS011;52192;52.002;5.956;2024-03-07T13:12:57;5.18;;;3.00;;
39044;SDS011;52192;52.002;5.956;2024-03-07T13:15:22;9.23;;;4.47;;
39044;SDS011;52192;52.002;5.956;2024-03-07T13:17:49;7.35;;;3.53;;
39044;SDS011;52192;52.002;5.956;2024-03-07T13:20:18;6.95;;;3.95;;
39044;SDS011;52192;52.002;5.956;2024-03-07T13:22:47;5.57;;;3.58;;
39044;SDS011;52192;52.002;5.956;2024-03-07T13:25:14;5.88;;;3.47;;
39044;SDS011;52192;52.002;5.956;2024-03-07T13:30:28;6.32;;;3.50;;
39044;SDS011;52192;52.002;5.956;2024-03-07T13:32:54;8.88;;;4.55;;
39044;SDS011;52192;52.002;5.956;2024-03-07T13:35:22;6.05;;;3.20;;
39044;SDS011;52192;52.002;5.956;2024-03-07T13:37:49;7.43;;;3.60;;
39044;SDS011;52192;52.002;5.956;2024-03-07T13:40:16;7.97;;;4.32;;
39044;SDS011;52192;52.002;5.956;2024-03-07T13:45:16;6.05;;;3.70;;
39044;SDS011;52192;52.002;5.956;2024-03-07T13:47:56;5.75;;;3.45;;
39044;SDS011;52192;52.002;5.956;2024-03-07T13:50:24;7.28;;;3.45;;
39044;SDS011;52192;52.002;5.956;2024-03-07T13:52:51;7.30;;;3.92;;
39044;SDS011;52192;52.002;5.956;2024-03-07T13:58:50;7.80;;;3.03;;
39044;SDS011;52192;52.002;5.956;2024-03-07T14:15:57;6.90;;;3.85;;
39044;SDS011;52192;52.002;5.956;2024-03-07T14:27:43;9.15;;;4.13;;
39044;SDS011;52192;52.002;5.956;2024-03-07T14:30:51;6.95;;;3.15;;
39044;SDS011;52192;52.002;5.956;2024-03-07T14:33:27;7.07;;;3.80;;
39044;SDS011;52192;52.002;5.956;2024-03-07T14:36:00;8.48;;;3.88;;
39044;SDS011;52192;52.002;5.956;2024-03-07T14:41:20;8.68;;;3.92;;
39044;SDS011;52192;52.002;5.956;2024-03-07T14:44:05;8.73;;;4.70;;
39044;SDS011;52192;52.002;5.956;2024-03-07T14:46:32;5.10;;;3.35;;
39044;SDS011;52192;52.002;5.956;2024-03-07T14:48:58;8.02;;;3.13;;
39044;SDS011;52192;52.002;5.956;2024-03-07T14:51:24;3.60;;;2.60;;
39044;SDS011;52192;52.002;5.956;2024-03-07T14:53:51;6.38;;;3.90;;
39044;SDS011;52192;52.002;5.956;2024-03-07T14:56:17;7.80;;;4.47;;
39044;SDS011;52192;52.002;5.956;2024-03-07T14:58:44;7.85;;;4.22;;
39044;SDS011;52192;52.002;5.956;2024-03-07T15:01:11;6.00;;;3.58;;
39044;SDS011;52192;52.002;5.956;2024-03-07T15:03:38;5.20;;;3.35;;
39044;SDS011;52192;52.002;5.956;2024-03-07T15:06:06;5.13;;;3.25;;
39044;SDS011;52192;52.002;5.956;2024-03-07T15:08:39;5.60;;;3.25;;
39044;SDS011;52192;52.002;5.956;2024-03-07T15:13:45;6.88;;;4.03;;
39044;SDS011;52192;52.002;5.956;2024-03-07T15:16:12;7.63;;;3.75;;
39044;SDS011;52192;52.002;5.956;2024-03-07T15:18:38;6.38;;;2.85;;
39044;SDS011;52192;52.002;5.956;2024-03-07T15:21:04;7.10;;;3.67;;
39044;SDS011;52192;52.002;5.956;2024-03-07T15:23:30;5.60;;;3.28;;
39044;SDS011;52192;52.002;5.956;2024-03-07T15:25:56;5.18;;;3.13;;
39044;SDS011;52192;52.002;5.956;2024-03-07T15:28:22;6.68;;;3.33;;
39044;SDS011;52192;52.002;5.956;2024-03-07T15:30:49;5.75;;;2.60;;
39044;SDS011;52192;52.002;5.956;2024-03-07T15:33:15;8.40;;;3.83;;
39044;SDS011;52192;52.002;5.956;2024-03-07T15:35:41;4.78;;;2.92;;